Flight Track Log - Related Links

Times and Time Zones

All times are in EST time to prevent confusion due to time zone crossing. See the CSN6818 flight status page for this flight to view local times or setup timezone preferences in your user account.

Time Position Orientation Groundspeed Altitude Reporting Facility
EST Latitude Longitude Course Direction KTS MPH feet Rate Location/Type
Wed 07:46:00 AM 37.8769 80.6887 38° Northeast  Level Estimated
Wed 07:47:00 AM 37.9697 80.7814 38° Northeast  Level Estimated
Wed 07:48:00 AM 38.0624 80.8743 38° Northeast  Level Estimated
Wed 07:49:00 AM 38.1550 80.9675 38° Northeast  Level Estimated
Wed 07:50:00 AM 38.2476 81.0609 38° Northeast  Level Estimated
Wed 07:51:00 AM 38.3401 81.1545 38° Northeast  Level Estimated
Wed 07:52:00 AM 38.4325 81.2484 38° Northeast  Level Estimated
Wed 07:53:00 AM 38.5249 81.3425 39° Northeast  Level Estimated
Wed 07:54:00 AM 38.6171 81.4368 39° Northeast  Level Estimated
Wed 07:55:00 AM 38.7093 81.5314 39° Northeast  Level Estimated
Wed 07:56:00 AM 38.8015 81.6263 39° Northeast  Level Estimated
Wed 07:57:00 AM 38.8935 81.7213 39° Northeast  Level Estimated
Wed 07:58:00 AM 38.9855 81.8167 39° Northeast  Level Estimated
Wed 07:59:00 AM 39.0774 81.9122 39° Northeast  Level Estimated
Wed 08:00:00 AM 39.1692 82.0081 39° Northeast  Level Estimated
Wed 08:01:00 AM 39.2609 82.1041 39° Northeast  Level Estimated
Wed 08:02:00 AM 39.3526 82.2005 39° Northeast  Level Estimated
Wed 08:03:00 AM 39.4441 82.2971 39° Northeast  Level Estimated
Wed 08:04:00 AM 39.5356 82.3939 39° Northeast  Level Estimated
Wed 08:05:00 AM 39.6270 82.4910 39° Northeast  Level Estimated
Wed 08:06:00 AM 39.7183 82.5883 39° Northeast  Level Estimated
Wed 08:07:00 AM 39.8096 82.6859 39° Northeast  Level Estimated
Wed 08:08:00 AM 39.9008 82.7838 39° Northeast  Level Estimated
Wed 08:09:00 AM 39.9919 82.8819 40° Northeast  Level Estimated
Wed 08:10:00 AM 40.0829 82.9803 40° Northeast  Level Estimated
Wed 08:11:00 AM 40.1738 83.0789 40° Northeast  Level Estimated
Wed 08:12:00 AM 40.2646 83.1779 40° Northeast  Level Estimated
Wed 08:13:00 AM 40.3554 83.2770 40° Northeast  Level Estimated
Wed 08:14:00 AM 40.4460 83.3765 40° Northeast  Level Estimated
Wed 08:15:00 AM 40.5366 83.4762 40° Northeast  Level Estimated
Wed 08:16:00 AM 40.6271 83.5762 40° Northeast  Level Estimated
Wed 08:17:00 AM 40.7175 83.6765 40° Northeast  Level Estimated
Wed 08:18:00 AM 40.8078 83.7770 40° Northeast  Level Estimated
Wed 08:19:00 AM 40.8981 83.8778 40° Northeast  Level Estimated
Wed 08:20:00 AM 40.9882 83.9789 40° Northeast  Level Estimated
Wed 08:21:00 AM 41.0783 84.0802 40° Northeast  Level Estimated
Wed 08:22:00 AM 41.1683 84.1819 40° Northeast  Level Estimated
Wed 08:23:00 AM 41.2581 84.2838 40° Northeast  Level Estimated
Wed 08:24:00 AM 41.3479 84.3860 40° Northeast  Level Estimated
Wed 08:25:00 AM 41.4376 84.4884 41° Northeast  Level Estimated
Wed 08:26:00 AM 41.5272 84.5912 41° Northeast  Level Estimated
Wed 08:27:00 AM 41.6167 84.6942 41° Northeast  Level Estimated
Wed 08:28:00 AM 41.7062 84.7976 41° Northeast  Level Estimated
Wed 08:29:00 AM 41.7955 84.9012 41° Northeast  Level Estimated
Wed 08:30:00 AM 41.8847 85.0051 41° Northeast  Level Estimated
Wed 08:31:00 AM 41.9739 85.1093 41° Northeast  Level Estimated
Wed 08:32:00 AM 42.0629 85.2138 41° Northeast  Level Estimated
Wed 08:33:00 AM 42.1519 85.3186 41° Northeast  Level Estimated
Wed 08:34:00 AM 42.2407 85.4237 41° Northeast  Level Estimated
Wed 08:35:00 AM 42.3295 85.5290 41° Northeast  Level Estimated
Wed 08:36:00 AM 42.4182 85.6347 41° Northeast  Level Estimated
Wed 08:37:00 AM 42.5067 85.7407 41° Northeast  Level Estimated
Wed 08:38:00 AM 42.5952 85.8469 41° Northeast  Level Estimated
Wed 08:39:00 AM 42.6836 85.9535 42° Northeast  Level Estimated
Wed 08:40:00 AM 42.7718 86.0604 42° Northeast  Level Estimated
Wed 08:41:00 AM 42.8600 86.1676 42° Northeast  Level Estimated
Wed 08:42:00 AM 42.9481 86.2750 42° Northeast  Level Estimated
Wed 08:43:00 AM 43.0360 86.3829 42° Northeast  Level Estimated
Wed 08:44:00 AM 43.1239 86.4910 42° Northeast  Level Estimated
Wed 08:45:00 AM 43.2117 86.5994 42° Northeast  Level Estimated
Wed 08:46:00 AM 43.2994 86.7081 42° Northeast  Level Estimated
Wed 08:47:00 AM 43.3869 86.8171 42° Northeast  Level Estimated
Wed 08:48:00 AM 43.4744 86.9265 42° Northeast  Level Estimated
Wed 08:49:00 AM 43.5617 87.0362 42° Northeast  Level Estimated
Wed 08:50:00 AM 43.6490 87.1462 42° Northeast  Level Estimated
Wed 08:51:00 AM 43.7361 87.2565 42° Northeast  Level Estimated
Wed 08:52:00 AM 43.8232 87.3671 43° Northeast  Level Estimated
Wed 08:53:00 AM 43.9071 87.4742 43° Northeast  Level Estimated
Wed 08:54:00 AM 43.9071 87.4742 144° Southeast  Level Estimated
Wed 08:55:00 AM 43.9071 87.4742 144° Southeast  Level Estimated
Wed 08:56:00 AM 43.9071 87.4742 144° Southeast  Level Estimated
Wed 08:57:00 AM 43.9071 87.4742 144° Southeast  Level Estimated
Wed 08:58:00 AM 43.9071 87.4742 144° Southeast  Level Estimated
Wed 08:59:00 AM 43.9071 87.4742 144° Southeast  Level Estimated
Wed 09:00:00 AM 43.9071 87.4742 144° Southeast  Level Estimated
Wed 09:01:00 AM 43.9071 87.4742 144° Southeast  Level Estimated
Wed 09:02:00 AM 43.9071 87.4742 144° Southeast  Level Estimated
Wed 09:03:00 AM 43.9071 87.4742 144° Southeast  Level Estimated
Wed 09:04:00 AM 43.9071 87.4742 144° Southeast  Level Estimated
Wed 09:05:00 AM 43.9071 87.4742 144° Southeast  Level Estimated
Wed 09:06:00 AM 43.9071 87.4742 144° Southeast  Level Estimated
Wed 09:07:00 AM 43.9071 87.4742 144° Southeast  Level Estimated
Wed 09:08:00 AM 43.9071 87.4742 144° Southeast  Level Estimated
Wed 09:09:00 AM 43.9071 87.4742 144° Southeast  Level Estimated

Login

Don't have an account? Register now (free) for customized features, flight alerts, and more!